Terminal Aerodrome Forecast
Issued by NWS Portland, OR

Home | Current Version | Previous Version | Text Only | Print | Product List | Glossary On
Versions: 1 2 3 4 5 6 7 8 9 10 11 12 13 14 15 16 17 18 19 20 21 22 23 24 25 26 27 28
000
FTUS46 KPQR 031130
TAFTTD
TAF
KTTD 031130Z 0312/0412 VRB03KT P6SM SCT140
     FM032000 29005KT P6SM SCT080 BKN200
     FM040200 29008KT P6SM VCSH SCT050 BKN080 OVC120
     FM040900 27004KT P6SM BKN030 OVC050=

USA.gov is the U.S. government's official web portal to all federal, state and local government web resources and services.